Time;durP1;ratioP1;P1;durP2;ratioP2;P2;SDS_P1;SDS_P2;PMS_P1;PMS_P2;Temp;Humidity;BMP_temperature;BMP_pressure;BME280_temperature;BME280_humidity;BME280_pressure;Samples;Min_cycle;Max_cycle;Signal;HPM_P1;HPM_P2
2021/10/12 00:01:19;;;;;;;37.97;27.15;;;10.70;81.20;;;9.11;87.36;96611.34;4989224;28;20513;-68
2021/10/12 00:03:45;;;;;;;34.75;26.27;;;10.70;81.10;;;9.08;87.37;96604.63;4989034;28;20038;-67
2021/10/12 00:06:11;;;;;;;38.42;26.40;;;10.60;81.50;;;9.08;86.65;96614.31;4937282;28;20027;-68
2021/10/12 00:08:38;;;;;;;34.67;24.75;;;10.60;81.50;;;9.08;86.80;96614.31;4969665;28;20057;-68
2021/10/12 00:11:03;;;;;;;35.15;24.92;;;10.60;81.40;;;9.06;87.96;96614.47;4957288;28;20034;-70
2021/10/12 00:13:29;;;;;;;30.85;23.45;;;10.60;81.40;;;9.08;87.86;96619.56;4989718;28;20088;-67
2021/10/12 00:15:55;;;;;;;33.75;23.63;;;10.60;81.30;;;9.07;87.66;96613.50;4956522;28;20113;-68
2021/10/12 00:18:21;;;;;;;28.77;22.15;;;10.60;81.20;;;9.08;86.82;96617.75;4972726;28;21222;-66
2021/10/12 00:20:47;;;;;;;27.42;19.77;;;10.70;81.00;;;9.07;86.76;96620.53;4988765;28;20066;-67
2021/10/12 00:23:12;;;;;;;28.35;19.05;;;10.60;80.80;;;9.08;87.71;96630.06;4953999;28;20054;-68
2021/10/12 00:25:38;;;;;;;25.35;18.30;;;10.70;80.80;;;9.02;87.29;96615.78;4956794;28;20104;-68
2021/10/12 00:28:04;;;;;;;25.00;17.42;;;10.70;80.70;;;9.08;87.45;96636.13;4972555;28;20034;-68
2021/10/12 00:30:29;;;;;;;22.45;16.83;;;10.70;80.50;;;9.10;87.32;96628.91;4987991;28;20031;-67
2021/10/12 00:32:55;;;;;;;23.73;16.00;;;10.70;80.40;;;9.10;86.02;96628.09;5005143;28;20417;-67
2021/10/12 00:35:21;;;;;;;21.77;16.35;;;10.60;80.10;;;9.09;86.01;96626.44;4998717;28;20503;-68
2021/10/12 00:37:47;;;;;;;21.52;15.88;;;10.60;80.20;;;9.08;86.39;96616.94;4960493;28;20073;-69
2021/10/12 00:40:12;;;;;;;19.67;14.88;;;10.60;80.00;;;9.04;86.91;96619.03;4989718;28;20062;-67
2021/10/12 00:42:38;;;;;;;18.20;13.88;;;10.60;80.00;;;9.03;86.22;96617.41;4955945;28;20030;-67
2021/10/12 00:45:06;;;;;;;20.92;14.00;;;10.60;79.80;;;9.02;86.59;96613.16;4941214;28;20500;-68
2021/10/12 00:47:32;;;;;;;19.02;13.40;;;10.60;80.00;;;9.03;85.35;96611.34;4972529;28;20039;-69
2021/10/12 00:49:57;;;;;;;17.92;13.15;;;10.60;80.10;;;9.02;86.23;96610.53;4956494;28;20038;-67
2021/10/12 00:52:23;;;;;;;18.38;13.00;;;10.60;80.00;;;9.01;86.89;96608.88;4972301;28;20408;-68
2021/10/12 00:54:49;;;;;;;19.13;13.25;;;10.60;79.90;;;9.01;86.00;96605.44;4988769;28;20532;-68
2021/10/12 00:57:14;;;;;;;22.17;14.52;;;10.60;80.10;;;9.01;86.38;96606.25;4988675;28;20041;-68
2021/10/12 00:59:40;;;;;;;16.25;13.00;;;10.60;79.90;;;8.99;85.78;96599.53;4985267;28;20050;-69
2021/10/12 01:02:06;;;;;;;20.55;12.70;;;10.50;79.60;;;8.97;85.72;96607.59;4965127;28;20109;-68
2021/10/12 01:04:32;;;;;;;18.35;12.25;;;10.50;80.10;;;8.95;85.17;96606.13;4968134;28;20039;-68
2021/10/12 01:06:58;;;;;;;17.67;11.88;;;10.40;80.10;;;8.87;85.71;96596.47;4978326;28;20038;-68
2021/10/12 01:09:23;;;;;;;15.93;11.82;;;10.30;80.40;;;8.84;85.67;96597.63;4974699;28;20043;-68
2021/10/12 01:11:49;;;;;;;16.75;12.15;;;10.20;80.60;;;8.81;86.59;96591.84;4973665;28;20535;-68
2021/10/12 01:14:15;;;;;;;16.45;11.45;;;10.30;80.70;;;8.79;86.83;96596.44;4988874;28;20531;-67
2021/10/12 01:16:41;;;;;;;19.58;11.18;;;10.30;80.70;;;8.77;86.92;96594.00;4987663;28;20035;-68
2021/10/12 01:19:07;;;;;;;16.77;11.13;;;10.30;80.60;;;8.76;85.80;96588.91;4987879;28;20053;-67
2021/10/12 01:21:39;;;;;;;14.55;10.55;;;10.30;80.70;;;8.73;87.09;96584.81;4987390;28;20034;-67
2021/10/12 01:24:05;;;;;;;17.90;11.90;;;10.30;80.60;;;8.71;86.74;96581.56;4966602;28;20042;-67
2021/10/12 01:26:31;;;;;;;17.98;11.35;;;10.20;80.60;;;8.71;86.59;96580.72;4956094;28;20072;-67
2021/10/12 01:28:57;;;;;;;16.27;11.48;;;10.30;80.50;;;8.65;86.35;96571.72;4956138;28;20407;-67
2021/10/12 01:31:23;;;;;;;17.08;11.15;;;10.20;80.40;;;8.61;86.86;96566.97;4988187;28;20038;-68
2021/10/12 01:33:49;;;;;;;15.10;11.20;;;10.10;80.70;;;8.55;86.72;96566.63;4968977;28;20034;-68
2021/10/12 01:36:15;;;;;;;17.02;11.05;;;10.10;80.90;;;8.57;86.39;96561.22;4983420;28;20129;-68
2021/10/12 01:38:41;;;;;;;14.23;10.63;;;10.10;80.90;;;8.55;86.04;96550.91;4971604;28;20030;-68
2021/10/12 01:41:07;;;;;;;15.38;11.15;;;10.10;80.70;;;8.52;86.82;96553.88;4969043;28;20090;-67
2021/10/12 01:43:33;;;;;;;18.45;11.35;;;10.10;80.70;;;8.52;86.92;96553.88;4970017;28;20042;-67
2021/10/12 01:46:02;;;;;;;16.95;10.32;;;10.10;80.60;;;8.52;87.37;96561.72;4988275;28;20034;-68
2021/10/12 01:48:28;;;;;;;17.63;10.60;;;10.10;80.50;;;8.48;86.38;96560.41;4971564;28;20468;-67
2021/10/12 01:50:54;;;;;;;13.68;10.75;;;10.10;80.50;;;8.48;86.47;96559.59;4970528;28;20169;-67
2021/10/12 01:53:20;;;;;;;16.92;11.60;;;10.00;80.60;;;8.44;86.17;96566.16;4990746;28;20488;-67
2021/10/12 01:55:45;;;;;;;19.88;12.90;;;10.00;80.70;;;8.41;86.90;96559.44;4956190;28;20046;-68
2021/10/12 01:58:11;;;;;;;19.70;13.25;;;9.80;80.90;;;8.35;86.82;96564.50;4984178;28;20041;-68
2021/10/12 02:00:37;;;;;;;19.83;12.52;;;9.80;81.30;;;8.30;86.70;96551.88;4992732;28;20030;-67
2021/10/12 02:03:02;;;;;;;15.35;11.25;;;9.70;81.60;;;8.28;87.31;96546.78;4956134;28;20118;-67
2021/10/12 02:05:28;;;;;;;19.92;11.77;;;9.70;81.50;;;8.22;87.57;96544.00;4971330;28;20038;-67
2021/10/12 02:07:54;;;;;;;17.98;11.13;;;9.60;81.90;;;8.14;87.18;96536.94;4958558;28;20090;-68
2021/10/12 02:10:20;;;;;;;13.98;10.77;;;9.60;82.10;;;8.13;87.72;96542.34;4962735;28;20042;-67
2021/10/12 02:12:48;;;;;;;15.98;11.40;;;9.60;81.90;;;8.08;87.41;96532.34;4991473;28;20026;-67
2021/10/12 02:15:14;;;;;;;18.63;11.70;;;9.60;81.80;;;8.10;87.78;96540.06;4976144;28;20026;-67
2021/10/12 02:17:40;;;;;;;16.13;11.35;;;9.70;81.70;;;8.05;88.08;96534.50;4974852;28;20046;-67
2021/10/12 02:20:07;;;;;;;14.88;11.20;;;9.60;81.80;;;8.07;87.56;96540.38;4955196;28;20534;-68
2021/10/12 02:22:33;;;;;;;15.82;11.23;;;9.60;81.70;;;8.03;88.39;96539.91;4974297;28;20498;-68
2021/10/12 02:24:59;;;;;;;15.02;11.27;;;9.60;81.60;;;8.03;88.53;96533.84;4975507;28;20038;-67
2021/10/12 02:27:24;;;;;;;15.18;10.90;;;9.60;81.60;;;8.03;88.29;96541.69;4974927;28;20035;-67
2021/10/12 02:29:50;;;;;;;15.43;11.52;;;9.60;81.60;;;8.02;87.98;96537.44;4974307;28;20039;-67
2021/10/12 02:32:17;;;;;;;17.30;11.38;;;9.60;81.50;;;8.01;87.95;96523.53;4974784;28;20443;-67
2021/10/12 02:34:43;;;;;;;16.90;11.93;;;9.60;81.70;;;8.01;88.68;96523.53;4973334;28;20050;-67
2021/10/12 02:37:08;;;;;;;17.65;11.82;;;9.60;81.90;;;8.02;87.99;96519.09;4971965;28;20046;-67
2021/10/12 02:39:34;;;;;;;17.35;11.63;;;9.60;82.10;;;8.04;88.55;96522.38;4959587;28;20042;-69
2021/10/12 02:42:00;;;;;;;17.55;11.88;;;9.60;82.00;;;8.03;88.60;96518.94;4985631;28;20038;-69
2021/10/12 02:44:26;;;;;;;17.08;11.80;;;9.60;81.90;;;8.05;88.73;96516.16;4973933;28;20038;-68
2021/10/12 02:46:52;;;;;;;17.08;12.93;;;9.60;82.00;;;8.04;88.77;96514.50;4969321;28;20049;-67
2021/10/12 02:49:18;;;;;;;18.75;13.57;;;9.60;81.90;;;8.01;88.72;96514.84;4989376;28;20097;-69
2021/10/12 02:51:43;;;;;;;18.08;13.85;;;9.60;82.10;;;8.02;88.46;96516.47;4990442;28;20415;-66
2021/10/12 02:54:09;;;;;;;21.83;13.20;;;9.60;82.10;;;8.02;89.09;96506.00;4972775;28;20034;-67
2021/10/12 02:56:35;;;;;;;19.95;13.70;;;9.60;82.00;;;8.04;89.04;96514.50;4999469;28;20034;-67
2021/10/12 02:59:01;;;;;;;20.58;13.88;;;9.60;81.90;;;8.03;88.82;96510.25;4991284;28;20631;-67
2021/10/12 03:01:26;;;;;;;22.65;14.75;;;9.70;81.90;;;8.04;89.19;96504.84;5003033;28;20097;-68
2021/10/12 03:03:52;;;;;;;20.95;15.00;;;9.60;82.00;;;8.04;89.37;96501.41;4991870;28;20038;-67
2021/10/12 03:06:18;;;;;;;22.05;14.65;;;9.60;82.20;;;8.02;89.16;96498.16;4980928;28;20042;-66
2021/10/12 03:08:44;;;;;;;24.10;15.75;;;9.60;82.10;;;7.99;88.63;96489.63;4978147;28;20070;-68
2021/10/12 03:11:10;;;;;;;20.17;14.45;;;9.60;81.90;;;7.99;88.91;96487.00;4974387;28;20467;-67
2021/10/12 03:13:35;;;;;;;20.63;14.55;;;9.60;82.00;;;7.99;88.99;96484.41;4954297;28;20069;-68
2021/10/12 03:16:01;;;;;;;22.05;15.30;;;9.60;82.00;;;7.98;88.97;96485.38;4939242;28;20031;-68
2021/10/12 03:18:30;;;;;;;24.15;16.13;;;9.60;81.90;;;7.97;89.06;96475.88;4955260;28;20041;-68
2021/10/12 03:20:56;;;;;;;20.50;15.00;;;9.60;82.10;;;7.95;89.17;96475.22;4977419;28;20026;-68
2021/10/12 03:23:22;;;;;;;25.30;17.02;;;9.60;82.20;;;7.96;89.23;96476.03;4965841;28;20035;-67
2021/10/12 03:25:47;;;;;;;25.48;18.02;;;9.50;82.20;;;7.95;89.02;96472.59;4954921;28;20123;-67
2021/10/12 03:28:13;;;;;;;26.85;18.08;;;9.60;82.10;;;7.90;89.55;96467.00;4983958;28;20039;-67
2021/10/12 03:30:39;;;;;;;27.05;17.85;;;9.50;82.20;;;7.87;89.36;96456.88;4973135;28;20042;-67
2021/10/12 03:33:05;;;;;;;28.02;18.80;;;9.40;82.60;;;7.78;89.24;96452.63;4957534;28;20042;-67
2021/10/12 03:35:36;;;;;;;26.88;18.90;;;9.20;83.20;;;7.74;89.88;96446.09;4953279;28;20096;-68
2021/10/12 03:38:02;;;;;;;27.50;19.38;;;9.20;83.40;;;7.71;89.79;96450.81;4942453;28;20030;-68
2021/10/12 03:40:28;;;;;;;29.85;19.98;;;9.10;83.60;;;7.65;89.75;96447.03;4989157;28;20518;-67
2021/10/12 03:42:54;;;;;;;32.55;21.63;;;9.10;83.70;;;7.60;89.83;96438.84;4961539;28;20084;-68
2021/10/12 03:45:19;;;;;;;33.22;22.55;;;9.00;84.10;;;7.57;90.34;96433.94;5009251;28;20411;-68
2021/10/12 03:47:45;;;;;;;30.25;21.42;;;8.90;84.40;;;7.56;90.80;96446.22;4984990;28;20041;-68
2021/10/12 03:50:11;;;;;;;29.92;21.42;;;9.00;84.50;;;7.57;91.13;96441.81;4989782;28;20054;-67
2021/10/12 03:52:36;;;;;;;35.10;23.77;;;9.10;84.20;;;7.59;91.44;96440.66;4957139;28;20030;-67
2021/10/12 03:55:03;;;;;;;34.85;24.00;;;9.10;84.10;;;7.58;91.45;96438.19;4970349;28;20159;-68
2021/10/12 03:57:29;;;;;;;33.90;24.35;;;9.20;84.20;;;7.62;91.72;96439.50;4954539;28;20122;-68
2021/10/12 03:59:55;;;;;;;35.17;24.38;;;9.30;84.10;;;7.64;92.17;96429.69;4955421;28;20031;-66
2021/10/12 04:02:20;;;;;;;36.60;25.30;;;9.30;84.10;;;7.70;91.90;96429.06;4967333;28;20031;-66
2021/10/12 04:04:47;;;;;;;35.88;24.90;;;9.30;84.20;;;7.72;92.02;96431.50;4987368;28;20040;-66
2021/10/12 04:07:13;;;;;;;39.92;27.63;;;9.30;84.30;;;7.72;92.05;96421.03;4986172;28;20120;-66
2021/10/12 04:09:38;;;;;;;38.60;25.40;;;9.20;84.50;;;7.71;92.13;96414.16;4972426;28;20408;-66
2021/10/12 04:12:04;;;;;;;40.85;26.42;;;9.20;84.80;;;7.71;92.71;96409.75;4953945;28;20572;-66
2021/10/12 04:14:30;;;;;;;37.08;27.42;;;9.20;84.90;;;7.76;92.62;96420.56;4954201;28;20115;-65
2021/10/12 04:16:56;;;;;;;44.03;28.90;;;9.30;84.70;;;7.77;92.54;96411.72;4970674;28;20027;-66
2021/10/12 04:19:21;;;;;;;43.67;30.45;;;9.30;84.60;;;7.79;92.52;96407.13;4968146;28;20126;-66
2021/10/12 04:21:47;;;;;;;47.42;29.88;;;9.40;84.50;;;7.77;92.40;96403.84;4989948;28;20038;-66
2021/10/12 04:24:13;;;;;;;44.95;31.48;;;9.40;84.50;;;7.80;92.52;96403.53;4973261;28;20034;-66
2021/10/12 04:26:39;;;;;;;43.60;30.98;;;9.40;84.20;;;7.80;92.11;96392.22;4973545;28;20377;-66
2021/10/12 04:29:06;;;;;;;49.03;32.35;;;9.30;84.30;;;7.81;92.73;96388.63;4978753;28;20129;-66
2021/10/12 04:31:33;;;;;;;49.38;32.30;;;9.40;84.10;;;7.78;92.46;96389.78;4984886;28;20115;-66
2021/10/12 04:33:59;;;;;;;41.08;30.35;;;9.30;84.40;;;7.77;92.17;96385.53;5009311;28;20037;-66
2021/10/12 04:36:24;;;;;;;46.03;30.83;;;9.40;84.30;;;7.78;92.69;96388.97;4992245;28;20033;-65
2021/10/12 04:38:50;;;;;;;46.50;31.42;;;9.30;84.40;;;7.74;92.54;96383.25;4999833;28;20165;-65
2021/10/12 04:41:16;;;;;;;47.47;32.55;;;9.30;84.50;;;7.75;93.00;96386.66;4956663;28;20089;-65
2021/10/12 04:43:41;;;;;;;47.83;32.53;;;9.20;84.60;;;7.69;92.50;96372.41;4956757;28;20038;-65
2021/10/12 04:46:07;;;;;;;51.92;33.58;;;9.20;84.60;;;7.69;93.10;96367.19;4965234;28;20094;-65
2021/10/12 04:48:33;;;;;;;48.80;32.72;;;9.20;84.70;;;7.71;92.55;96378.34;4958108;28;20057;-65
2021/10/12 04:50:59;;;;;;;49.55;32.92;;;9.20;84.80;;;7.72;92.79;96381.78;4983530;28;20057;-65
2021/10/12 04:53:25;;;;;;;44.30;31.33;;;9.30;84.50;;;7.73;92.59;96378.97;5008369;28;20509;-64
2021/10/12 04:55:50;;;;;;;46.45;33.38;;;9.40;84.40;;;7.75;92.62;96382.25;5008536;28;20127;-66
2021/10/12 04:58:16;;;;;;;54.33;34.22;;;9.40;84.40;;;7.76;93.32;96381.28;4968742;28;20496;-65
2021/10/12 05:00:42;;;;;;;49.60;33.95;;;9.40;84.50;;;7.77;92.92;96372.44;4952987;28;20433;-66
2021/10/12 05:03:08;;;;;;;49.47;33.15;;;9.40;84.30;;;7.81;93.60;96372.91;4953373;28;20023;-65
2021/10/12 05:05:33;;;;;;;49.72;33.25;;;9.50;84.30;;;7.84;93.04;96389.09;4969186;28;20066;-65
2021/10/12 05:07:59;;;;;;;55.03;34.58;;;9.50;84.30;;;7.88;93.12;96392.22;4971492;28;20031;-65
2021/10/12 05:10:25;;;;;;;58.30;38.88;;;9.60;84.20;;;7.87;93.64;96388.78;4997254;28;20097;-65
2021/10/12 05:12:51;;;;;;;67.03;45.97;;;9.50;84.60;;;7.92;93.39;96396.13;4992050;28;20110;-66
2021/10/12 05:15:23;;;;;;;55.97;36.33;;;9.60;84.50;;;7.95;93.55;96395.84;4991994;28;20434;-65
2021/10/12 05:17:49;;;;;;;54.58;33.90;;;9.60;84.30;;;7.98;93.35;96400.72;4976451;28;20030;-65
2021/10/12 05:20:15;;;;;;;50.60;33.35;;;9.70;84.10;;;7.98;93.45;96398.13;4987559;28;20519;-65
2021/10/12 05:22:41;;;;;;;47.60;31.75;;;9.60;83.90;;;8.02;93.46;96402.03;4956233;28;20037;-65
2021/10/12 05:25:06;;;;;;;44.53;31.75;;;9.70;83.60;;;8.03;92.84;96387.13;4974385;28;20400;-65
2021/10/12 05:27:33;;;;;;;50.97;35.08;;;9.70;83.50;;;7.98;92.58;96375.34;4960054;28;20027;-65
2021/10/12 05:29:58;;;;;;;46.03;32.70;;;9.70;83.50;;;8.03;92.58;96381.91;4964184;28;20045;-65
2021/10/12 05:32:24;;;;;;;45.53;32.03;;;9.70;83.60;;;8.05;92.82;96383.38;4992014;28;20403;-66
2021/10/12 05:34:50;;;;;;;47.72;32.78;;;9.70;83.80;;;8.10;92.39;96382.84;4995546;28;20030;-66
2021/10/12 05:37:15;;;;;;;56.60;38.30;;;9.80;83.60;;;8.11;92.91;96380.06;5012075;28;20049;-66
2021/10/12 05:39:41;;;;;;;52.67;35.38;;;9.80;83.80;;;8.13;92.65;96377.28;4963919;28;20049;-65
2021/10/12 05:42:07;;;;;;;51.75;34.78;;;9.80;83.80;;;8.13;92.59;96377.28;4991851;28;20035;-66
2021/10/12 05:44:33;;;;;;;52.03;34.75;;;9.70;83.60;;;8.15;92.59;96372.72;4992215;28;20479;-66
2021/10/12 05:46:59;;;;;;;49.40;33.03;;;9.90;83.70;;;8.19;92.74;96379.25;4992342;28;20066;-66
2021/10/12 05:49:24;;;;;;;48.20;33.83;;;9.90;83.00;;;8.19;92.66;96372.22;4982921;28;20049;-65
2021/10/12 05:51:50;;;;;;;44.80;31.50;;;9.90;83.50;;;8.19;92.07;96366.16;5004005;28;20472;-65
2021/10/12 05:54:22;;;;;;;46.42;32.70;;;9.80;82.70;;;8.19;91.72;96363.53;5011106;28;20574;-66
2021/10/12 05:56:55;;;;;;;47.35;33.33;;;9.80;83.00;;;8.21;92.32;96364.19;5012880;28;20025;-65
2021/10/12 05:59:21;;;;;;;48.25;33.25;;;9.90;83.00;;;8.23;91.82;96365.66;4999190;28;20526;-66
2021/10/12 06:01:47;;;;;;;48.08;32.70;;;9.90;83.10;;;8.24;91.24;96369.91;4975635;28;20035;-66
2021/10/12 06:04:12;;;;;;;44.88;31.13;;;9.90;82.40;;;8.24;91.45;96369.91;4991106;28;20034;-66
2021/10/12 06:06:38;;;;;;;46.33;30.77;;;9.90;82.60;;;8.25;91.50;96360.25;4992525;28;20041;-66
2021/10/12 06:09:05;;;;;;;44.85;32.22;;;9.90;82.30;;;8.23;91.46;96356.97;4990834;28;20054;-66
2021/10/12 06:11:31;;;;;;;44.33;31.67;;;9.90;82.40;;;8.24;91.71;96355.97;4999415;28;20125;-67
2021/10/12 06:13:57;;;;;;;53.35;32.55;;;9.90;82.80;;;8.28;91.08;96357.28;4991681;28;20458;-67
2021/10/12 06:16:23;;;;;;;53.72;34.15;;;9.90;82.40;;;8.28;91.15;96355.47;4959049;28;20100;-65
2021/10/12 06:18:48;;;;;;;47.88;32.60;;;9.90;82.60;;;8.34;91.50;96369.72;4951913;28;20047;-66
2021/10/12 06:21:14;;;;;;;50.70;38.70;;;10.10;83.30;;;8.39;92.19;96366.63;4956091;28;20499;-66
2021/10/12 06:23:40;;;;;;;51.90;37.70;;;10.10;83.40;;;8.41;92.53;96365.47;4955973;28;20039;-67
2021/10/12 06:26:06;;;;;;;47.33;33.40;;;10.20;82.40;;;8.47;92.01;96374.47;4971637;28;20134;-66
2021/10/12 06:28:32;;;;;;;46.83;32.00;;;10.20;82.30;;;8.52;91.62;96372.97;4960627;28;20038;-66
2021/10/12 06:30:58;;;;;;;43.40;31.65;;;10.30;81.90;;;8.54;90.91;96370.16;4986192;28;20101;-66
2021/10/12 06:33:24;;;;;;;45.20;30.90;;;10.30;81.30;;;8.53;90.85;96373.78;5010707;28;20068;-66
2021/10/12 06:35:49;;;;;;;46.95;31.58;;;10.20;81.60;;;8.50;89.87;96363.63;5010693;28;20030;-66
2021/10/12 06:38:15;;;;;;;43.90;31.02;;;10.10;81.30;;;8.51;90.68;96379.19;4991817;28;20061;-65
2021/10/12 06:40:41;;;;;;;45.58;32.38;;;10.10;81.60;;;8.51;90.92;96366.06;4990740;28;20034;-66
2021/10/12 06:43:07;;;;;;;44.28;32.10;;;10.20;81.70;;;8.51;90.16;96376.56;4991114;28;20523;-66
2021/10/12 06:45:32;;;;;;;45.28;31.10;;;10.20;81.40;;;8.54;90.22;96370.16;4958613;28;20066;-66
2021/10/12 06:47:58;;;;;;;47.97;32.08;;;10.30;81.40;;;8.59;90.96;96373.09;4991014;28;20154;-66
2021/10/12 06:50:24;;;;;;;44.40;30.77;;;10.40;81.40;;;8.64;90.30;96375.22;4978352;28;20120;-66
2021/10/12 06:52:50;;;;;;;46.75;32.42;;;10.40;81.10;;;8.61;90.31;96365.06;4994048;28;20488;-66
2021/10/12 06:55:17;;;;;;;45.58;32.33;;;10.40;80.90;;;8.62;89.67;96371.97;5010487;28;20072;-65
2021/10/12 06:57:43;;;;;;;47.50;32.45;;;10.40;80.90;;;8.64;89.73;96375.22;4977710;28;20364;-66
2021/10/12 07:00:13;;;;;;;44.55;32.10;;;10.40;80.80;;;8.67;89.23;96375.69;4977123;28;20026;-66
2021/10/12 07:02:40;;;;;;;45.03;31.75;;;10.40;81.00;;;8.68;90.10;96377.34;4959418;28;20026;-66
2021/10/12 07:05:06;;;;;;;47.33;32.13;;;10.30;81.00;;;8.66;89.83;96378.50;4942667;28;20488;-66
2021/10/12 07:07:32;;;;;;;49.13;32.10;;;10.30;81.30;;;8.69;89.28;96375.53;4989890;28;20549;-66
2021/10/12 07:09:59;;;;;;;44.60;31.30;;;10.40;81.00;;;8.68;89.71;96371.28;4976546;28;20030;-66
2021/10/12 07:12:25;;;;;;;39.80;30.77;;;10.30;81.10;;;8.66;89.71;96363.56;4975286;28;20038;-66
2021/10/12 07:14:51;;;;;;;46.28;32.42;;;10.30;80.70;;;8.63;89.46;96365.72;4974436;28;20033;-66
2021/10/12 07:17:16;;;;;;;44.28;31.20;;;10.20;81.10;;;8.64;89.25;96376.03;4990391;28;20482;-66
2021/10/12 07:19:42;;;;;;;44.10;32.70;;;10.20;81.40;;;8.62;89.27;96366.72;4973655;28;20487;-66
2021/10/12 07:22:08;;;;;;;51.00;33.33;;;10.20;81.30;;;8.61;89.83;96365.06;4973616;28;20061;-66
2021/10/12 07:24:33;;;;;;;47.78;32.28;;;10.20;81.30;;;8.64;90.02;96372.59;4990132;28;20030;-66
2021/10/12 07:26:59;;;;;;;45.42;32.78;;;10.30;81.30;;;8.62;89.48;96378.03;4991621;28;20385;-66
2021/10/12 07:29:25;;;;;;;47.58;33.65;;;10.30;81.50;;;8.65;90.06;96382.09;4989539;28;20049;-66
2021/10/12 07:31:51;;;;;;;47.88;32.25;;;10.40;81.50;;;8.66;90.26;96381.94;4989562;28;20037;-66
2021/10/12 07:34:16;;;;;;;48.38;32.97;;;10.40;81.60;;;8.65;90.11;96382.91;4999767;28;20034;-66
2021/10/12 07:36:42;;;;;;;48.92;34.10;;;10.40;81.80;;;8.69;90.24;96378.16;4993347;28;20145;-66
2021/10/12 07:39:08;;;;;;;47.40;33.28;;;10.40;81.90;;;8.68;90.10;96384.38;5009269;28;20030;-66
2021/10/12 07:41:34;;;;;;;45.67;32.63;;;10.40;81.90;;;8.67;90.79;96374.88;4971257;28;20042;-66
2021/10/12 07:44:00;;;;;;;44.33;31.95;;;10.40;81.70;;;8.69;90.57;96376.34;4973643;28;20030;-66
2021/10/12 07:46:26;;;;;;;49.03;32.92;;;10.40;81.40;;;8.67;90.14;96374.88;4990781;28;20049;-66
2021/10/12 07:48:53;;;;;;;46.65;33.67;;;10.40;81.70;;;8.71;89.90;96376.16;4989171;28;20037;-65
2021/10/12 07:51:20;;;;;;;50.58;33.33;;;10.50;81.50;;;8.72;90.85;96373.38;5005584;28;20112;-65
2021/10/12 07:53:45;;;;;;;42.70;32.30;;;10.50;81.60;;;8.79;90.02;96376.13;5000966;28;20470;-65
2021/10/12 07:56:17;;;;;;;44.35;30.83;;;10.60;81.10;;;8.79;90.07;96373.50;4992680;28;20100;-66
2021/10/12 07:58:43;;;;;;;44.15;31.50;;;10.60;81.20;;;8.84;89.80;96377.28;5009097;28;20494;-66
2021/10/12 08:01:09;;;;;;;39.30;29.73;;;10.70;81.20;;;8.90;90.33;96368.72;4990860;28;20034;-66
2021/10/12 08:03:35;;;;;;;45.90;31.08;;;10.80;81.10;;;8.93;90.77;96370.16;4957307;28;20038;-66
2021/10/12 08:06:01;;;;;;;43.60;31.10;;;10.80;81.00;;;9.02;91.24;96379.63;4957161;28;20042;-66
2021/10/12 08:08:26;;;;;;;43.63;30.70;;;10.80;81.00;;;9.06;90.53;96369.63;4980803;28;20038;-66
2021/10/12 08:10:53;;;;;;;42.00;29.52;;;10.80;80.40;;;9.09;89.94;96370.09;4962178;28;20094;-66
2021/10/12 08:13:21;;;;;;;41.40;29.42;;;10.90;80.80;;;9.09;89.10;96370.09;4981015;28;20132;-66
2021/10/12 08:15:55;;;;;;;44.38;28.98;;;10.80;80.40;;;9.07;88.78;96366.00;4973580;28;20383;-66
2021/10/12 08:18:24;;;;;;;43.30;29.05;;;10.70;80.20;;;9.08;88.56;96367.63;4958790;28;20044;-66
2021/10/12 08:20:50;;;;;;;42.78;30.48;;;10.60;80.20;;;9.00;88.71;96360.59;4973164;28;20102;-66
2021/10/12 08:23:16;;;;;;;40.65;29.88;;;10.60;81.10;;;8.99;89.20;96361.59;4953836;28;20522;-65
2021/10/12 08:25:41;;;;;;;37.15;28.35;;;10.70;81.20;;;9.04;89.32;96356.66;4953768;28;20771;-66
2021/10/12 08:28:07;;;;;;;38.92;29.13;;;10.80;80.80;;;9.08;90.18;96352.72;4953044;28;20161;-66
2021/10/12 08:30:33;;;;;;;43.60;29.60;;;10.80;80.90;;;9.12;90.10;96356.63;4969379;28;20035;-65
2021/10/12 08:32:59;;;;;;;45.72;29.67;;;10.90;81.10;;;9.12;89.28;96356.63;4996310;28;20041;-66
2021/10/12 08:35:24;;;;;;;41.15;28.67;;;10.80;81.10;;;9.11;89.59;96357.59;4988906;28;20411;-65
2021/10/12 08:37:50;;;;;;;40.58;30.63;;;10.80;81.20;;;9.09;90.29;96348.28;4992344;28;20534;-66
2021/10/12 08:40:17;;;;;;;38.45;27.98;;;10.70;81.50;;;9.05;89.50;96353.06;5007830;28;20117;-67
2021/10/12 08:42:50;;;;;;;35.45;24.98;;;10.60;81.00;;;9.02;89.26;96358.63;4976127;28;20039;-66
2021/10/12 08:45:16;;;;;;;25.33;18.92;;;10.60;81.00;;;9.00;88.38;96355.38;4973036;28;20037;-67
2021/10/12 08:47:42;;;;;;;25.60;18.75;;;10.50;79.30;;;9.00;87.26;96355.38;4988732;28;20396;-66
2021/10/12 08:50:12;;;;;;;26.20;19.20;;;10.60;79.00;;;8.99;87.73;96358.97;4971727;28;20389;-67
2021/10/12 08:52:38;;;;;;;27.52;19.10;;;10.60;79.60;;;9.02;88.76;96357.81;4980648;28;20546;-66
2021/10/12 08:55:04;;;;;;;26.15;19.42;;;10.70;80.10;;;9.01;88.26;96349.13;4986100;28;20053;-66
2021/10/12 08:57:38;;;;;;;24.58;19.40;;;10.80;79.60;;;9.07;87.84;96356.31;4991679;28;20061;-66
2021/10/12 09:00:09;;;;;;;27.20;21.48;;;10.80;79.60;;;9.08;89.38;96347.47;4983345;28;20037;-67
2021/10/12 09:03:16;;;;;;;28.77;22.55;;;10.80;79.80;;;9.13;88.62;96355.63;4972130;28;20038;-67
2021/10/12 09:06:02;;;;;;;35.70;24.98;;;10.80;80.00;;;9.12;90.24;96348.75;4975392;28;20846;-66
2021/10/12 09:08:35;;;;;;;36.95;26.73;;;10.90;80.60;;;9.13;89.16;96339.88;4980080;28;20547;-67
2021/10/12 09:11:03;;;;;;;36.80;26.70;;;10.90;81.00;;;9.13;88.86;96339.88;4952503;28;20396;-66
2021/10/12 09:13:29;;;;;;;37.45;27.80;;;10.90;80.90;;;9.18;89.57;96341.97;4988365;28;20034;-67
2021/10/12 09:16:14;;;;;;;41.72;28.13;;;10.90;81.00;;;9.19;90.67;96344.44;4972440;28;20041;-66
2021/10/12 09:18:46;;;;;;;46.22;29.42;;;10.80;81.00;;;9.17;90.11;96335.91;4988029;28;20033;-67
2021/10/12 09:21:26;;;;;;;38.47;28.23;;;10.70;81.40;;;9.14;89.95;96335.44;5012381;28;20697;-66
2021/10/12 09:24:11;;;;;;;42.10;28.80;;;10.70;81.60;;;9.06;90.12;96338.94;4954363;28;20046;-67
2021/10/12 09:26:46;;;;;;;32.10;23.55;;;10.50;81.70;;;9.02;88.82;96342.06;4968896;28;20031;-66
2021/10/12 09:29:33;;;;;;;27.48;19.90;;;10.50;80.70;;;8.99;88.77;96335.38;4970026;28;20035;-66
2021/10/12 09:31:59;;;;;;;26.25;18.83;;;10.60;80.80;;;8.98;88.61;96341.59;4954832;28;20101;-67
2021/10/12 09:34:25;;;;;;;23.30;18.10;;;10.60;80.60;;;8.97;88.42;96345.22;4952511;28;20062;-67
2021/10/12 09:36:51;;;;;;;25.23;18.33;;;10.50;80.40;;;8.92;88.51;96331.81;4969279;28;20069;-66
2021/10/12 09:39:38;;;;;;;24.90;17.40;;;10.50;80.50;;;8.97;88.59;96323.41;4968650;28;20030;-66
2021/10/12 09:42:06;;;;;;;22.23;16.13;;;10.60;80.40;;;9.03;88.73;96334.03;4971007;28;20035;-66
2021/10/12 09:44:32;;;;;;;24.10;16.98;;;10.80;80.20;;;9.11;88.89;96323.50;4952902;28;20426;-67
2021/10/12 09:47:25;;;;;;;21.98;15.07;;;10.90;80.20;;;9.27;89.46;96316.47;4956171;28;20050;-66
2021/10/12 09:50:09;;;;;;;18.73;13.52;;;11.20;79.70;;;9.37;87.33;96309.19;4985788;28;20114;-67
2021/10/12 09:52:37;;;;;;;16.15;11.02;;;11.30;78.60;;;9.46;87.46;96314.19;4987629;28;20511;-66
2021/10/12 09:55:03;;;;;;;13.63;9.30;;;11.40;77.00;;;9.57;86.30;96314.78;4972287;28;20108;-66
2021/10/12 09:57:30;;;;;;;13.27;9.00;;;11.50;76.70;;;9.67;87.00;96292.53;4987846;28;20038;-66
2021/10/12 09:59:56;;;;;;;11.68;8.93;;;11.60;75.40;;;9.79;86.22;96298.16;4955717;28;20113;-66
2021/10/12 10:02:24;;;;;;;11.40;8.82;;;11.80;76.00;;;9.94;86.65;96290.28;4975927;28;20117;-67
2021/10/12 10:04:52;;;;;;;14.25;9.38;;;12.10;75.40;;;10.02;86.26;96298.91;4968506;28;20098;-67
2021/10/12 10:07:37;;;;;;;14.70;9.45;;;12.20;75.30;;;10.18;85.57;96290.03;4968849;28;20156;-66
2021/10/12 10:10:05;;;;;;;12.30;9.73;;;12.30;74.00;;;10.23;84.26;96279.84;4938402;28;20042;-67
2021/10/12 10:12:31;;;;;;;11.82;9.10;;;12.30;74.20;;;10.33;83.71;96282.16;4955419;28;20034;-66
2021/10/12 10:14:57;;;;;;;13.27;9.60;;;12.40;73.50;;;10.41;83.94;96272.38;4956205;28;20512;-67